Terminal Aerodrome Forecast
Issued by NWS

Home | Current Version | Previous Version | Text Only | Print | Product List | Glossary On
Versions: 1 2 3 4 5 6 7 8 9 10 11 12 13 14 15
714
FTUS41 KCAR 231427 AAB
TAFHUL
TAF AMD
KHUL 231427Z 2314/2412 19005KT P6SM OVC005
     FM231700 19005KT P6SM SCT250
     FM240600 19004KT 1SM BR SCT003
     FM240800 19005KT 1SM BR BKN003=

USA.gov is the U.S. government's official web portal to all federal, state and local government web resources and services.